1923 NOT_NAMED (1923270N19131)


IBTrACS version v04r00. Visit IBTrACS website for data access.
Please direct all questions to the IBTrACS Q and A forum

Storm track - Intensity - Wind Radii - Intensity Data - Source Data - All data

Summary Information

Storm ID 1923270N19131
Start Sep 26 22Z
Landfall Oct 2 21Z
End Oct 2 22Z
ATCF IDs
Track status Best track data.

Storm track plot

Map of storm track

Intensity plots

No Intensity information for this storm


Radial wind information

No radial wind information for this storm


Position and Intensity Table

BASIN ISO_TIME_________ NATURE LAT LON
degrees north degrees east
WP 1923-09-26 22:00:00 NR 19.40 130.60
WP 1923-09-27 00:00:00 NR 19.54 130.34
WP 03:00:00 NR 19.76 129.96
WP 06:00:00 NR 19.98 129.59
WP 09:00:00 NR 20.22 129.22
WP 10:00:00 NR 20.30 129.10
WP 12:00:00 NR 20.47 128.87
WP 15:00:00 NR 20.74 128.54
WP 18:00:00 NR 20.99 128.24
WP 21:00:00 NR 21.23 127.98
WP 22:00:00 NR 21.30 127.90
WP 1923-09-28 00:00:00 NR 21.42 127.77
WP 03:00:00 NR 21.57 127.60
WP 06:00:00 NR 21.71 127.47
WP 09:00:00 NR 21.85 127.34
WP 10:00:00 NR 21.90 127.30
WP 12:00:00 NR 22.02 127.20
WP 15:00:00 NR 22.22 127.04
WP 18:00:00 NR 22.43 126.89
WP 21:00:00 NR 22.63 126.75
WP 22:00:00 NR 22.70 126.70
WP 1923-09-29 00:00:00 NR 22.82 126.61
WP 03:00:00 NR 23.00 126.47
WP 06:00:00 NR 23.17 126.35
WP 09:00:00 NR 23.34 126.23
WP 10:00:00 NR 23.40 126.20
WP 12:00:00 NR 23.51 126.14
WP 15:00:00 NR 23.68 126.07
WP 18:00:00 NR 23.86 126.00
WP 21:00:00 NR 24.04 125.93
WP 22:00:00 NR 24.10 125.90
WP 1923-09-30 00:00:00 NR 24.23 125.85
WP 03:00:00 NR 24.43 125.76
WP 06:00:00 NR 24.64 125.66
WP 09:00:00 NR 24.84 125.54
WP 10:00:00 NR 24.90 125.50
WP 12:00:00 NR 25.04 125.42
WP 15:00:00 NR 25.23 125.27
WP 18:00:00 NR 25.41 125.10
WP 21:00:00 NR 25.56 124.88
WP 22:00:00 NR 25.60 124.80
WP 1923-10-01 00:00:00 NR 25.67 124.62
WP 03:00:00 NR 25.74 124.31
WP 06:00:00 NR 25.78 123.97
WP 09:00:00 NR 25.80 123.62
WP 10:00:00 NR 25.80 123.50
WP 12:00:00 NR 25.81 123.31
WP 15:00:00 NR 25.81 123.02
WP 18:00:00 NR 25.78 122.70
WP 21:00:00 NR 25.72 122.34
WP 22:00:00 NR 25.70 122.20
WP 1923-10-02 00:00:00 NR 25.64 121.87
WP 03:00:00 NR 25.53 121.32
WP 06:00:00 NR 25.40 120.74
WP 09:00:00 NR 25.25 120.18
WP 10:00:00 NR 25.20 120.00
WP 12:00:00 NR 25.10 119.67
WP 15:00:00 NR 24.95 119.22
WP 18:00:00 NR 24.80 118.81
WP 21:00:00 NR 24.65 118.43
WP 22:00:00 NR 24.60 118.30

Source Information

Agency Information
USA
TOKYO
CMA
HKO
NEWDELHI
REUNION
BOM
NADI
WELLINGTON
DS824
TD9636 cons_worldwide_trop_cyclone_18710101-19891231-003:Line=7066
TD9635
NEUMANN
MLC

All available IBTrACS Data

SEASON BASIN SUBBASIN ISO_TIME_________ NATURE LAT LON DIST2LAND LANDFALL IFLAG USA SSHS TD9636 LAT TD9636 LON TD9636 STAGE STORM SPEED STORM DIR
Year degrees north degrees east km km 1 degrees north degrees east kts degrees
1923 WP MM 1923-09-26 22:00:00 NR 19.40 130.60 880 850 __________O___ -1 19.40 130.60 7 8 300
1923 WP MM 1923-09-27 00:00:00 NR 19.54 130.34 850 822 __________P___ -1 19.54 130.34 7 8 301
1923 WP MM 03:00:00 NR 19.76 129.96 824 784 __________P___ -1 19.76 129.96 7 8 302
1923 WP MM 06:00:00 NR 19.98 129.59 787 751 __________P___ -1 19.98 129.59 7 8 303
1923 WP MM 09:00:00 NR 20.22 129.22 751 744 __________P___ -1 20.22 129.22 7 8 305
1923 WP MM 10:00:00 NR 20.30 129.10 744 727 __________O___ -1 20.30 129.10 7 8 308
1923 WP MM 12:00:00 NR 20.47 128.87 730 698 __________P___ -1 20.47 128.87 7 8 309
1923 WP MM 15:00:00 NR 20.74 128.54 698 682 __________P___ -1 20.74 128.54 7 8 311
1923 WP MM 18:00:00 NR 20.99 128.24 682 673 __________P___ -1 20.99 128.24 7 7 313
1923 WP MM 21:00:00 NR 21.23 127.98 673 669 __________P___ -1 21.23 127.98 7 7 314
1923 WP MM 22:00:00 NR 21.30 127.90 669 665 __________O___ -1 21.30 127.90 7 5 313
1923 WP MM 1923-09-28 00:00:00 NR 21.42 127.77 665 653 __________P___ -1 21.42 127.77 7 5 314
1923 WP MM 03:00:00 NR 21.57 127.60 659 646 __________P___ -1 21.57 127.60 7 4 316
1923 WP MM 06:00:00 NR 21.71 127.47 646 623 __________P___ -1 21.71 127.47 7 4 319
1923 WP MM 09:00:00 NR 21.85 127.34 623 620 __________P___ -1 21.85 127.34 7 4 322
1923 WP MM 10:00:00 NR 21.90 127.30 620 607 __________O___ -1 21.90 127.30 7 4 322
1923 WP MM 12:00:00 NR 22.02 127.20 607 580 __________P___ -1 22.02 127.20 7 5 324
1923 WP MM 15:00:00 NR 22.22 127.04 580 561 __________P___ -1 22.22 127.04 7 5 325
1923 WP MM 18:00:00 NR 22.43 126.89 561 533 __________P___ -1 22.43 126.89 7 5 326
1923 WP MM 21:00:00 NR 22.63 126.75 533 528 __________P___ -1 22.63 126.75 7 5 327
1923 WP MM 22:00:00 NR 22.70 126.70 528 514 __________O___ -1 22.70 126.70 7 5 325
1923 WP MM 1923-09-29 00:00:00 NR 22.82 126.61 514 497 __________P___ -1 22.82 126.61 7 4 325
1923 WP MM 03:00:00 NR 23.00 126.47 497 470 __________P___ -1 23.00 126.47 7 4 326
1923 WP MM 06:00:00 NR 23.17 126.35 470 456 __________P___ -1 23.17 126.35 7 4 328
1923 WP MM 09:00:00 NR 23.34 126.23 456 453 __________P___ -1 23.34 126.23 7 4 330
1923 WP MM 10:00:00 NR 23.40 126.20 453 440 __________O___ -1 23.40 126.20 7 4 332
1923 WP MM 12:00:00 NR 23.51 126.14 440 435 __________P___ -1 23.51 126.14 7 4 336
1923 WP MM 15:00:00 NR 23.68 126.07 435 420 __________P___ -1 23.68 126.07 7 4 339
1923 WP MM 18:00:00 NR 23.86 126.00 420 409 __________P___ -1 23.86 126.00 7 4 340
1923 WP MM 21:00:00 NR 24.04 125.93 409 406 __________P___ -1 24.04 125.93 7 4 340
1923 WP MM 22:00:00 NR 24.10 125.90 406 394 __________O___ -1 24.10 125.90 3 4 339
1923 WP MM 1923-09-30 00:00:00 NR 24.23 125.85 394 389 __________P___ -1 24.23 125.85 3 4 340
1923 WP MM 03:00:00 NR 24.43 125.76 389 375 __________P___ -1 24.43 125.76 3 4 338
1923 WP MM 06:00:00 NR 24.64 125.66 375 353 __________P___ -1 24.64 125.66 3 5 334
1923 WP MM 09:00:00 NR 24.84 125.54 353 352 __________P___ -1 24.84 125.54 3 5 330
1923 WP MM 10:00:00 NR 24.90 125.50 352 342 __________O___ -1 24.90 125.50 4 5 329
1923 WP MM 12:00:00 NR 25.04 125.42 342 332 __________P___ -1 25.04 125.42 4 5 328
1923 WP MM 15:00:00 NR 25.23 125.27 332 314 __________P___ -1 25.23 125.27 4 5 323
1923 WP MM 18:00:00 NR 25.41 125.10 314 296 __________P___ -1 25.41 125.10 4 5 313
1923 WP MM 21:00:00 NR 25.56 124.88 298 289 __________P___ -1 25.56 124.88 4 5 305
1923 WP MM 22:00:00 NR 25.60 124.80 289 272 __________O___ -1 25.60 124.80 4 5 295
1923 WP MM 1923-10-01 00:00:00 NR 25.67 124.62 272 243 __________P___ -1 25.67 124.62 4 6 288
1923 WP MM 03:00:00 NR 25.74 124.31 243 219 __________P___ -1 25.74 124.31 4 6 281
1923 WP MM 06:00:00 NR 25.78 123.97 219 183 __________P___ -1 25.78 123.97 4 6 275
1923 WP MM 09:00:00 NR 25.80 123.62 183 175 __________P___ -1 25.80 123.62 4 6 272
1923 WP MM 10:00:00 NR 25.80 123.50 175 158 __________O___ -1 25.80 123.50 4 6 272
1923 WP MM 12:00:00 NR 25.81 123.31 158 134 __________P___ -1 25.81 123.31 4 5 271
1923 WP MM 15:00:00 NR 25.81 123.02 134 113 __________P___ -1 25.81 123.02 4 5 267
1923 WP MM 18:00:00 NR 25.78 122.70 113 83 __________P___ -1 25.78 122.70 4 6 262
1923 WP MM 21:00:00 NR 25.72 122.34 83 80 __________P___ -1 25.72 122.34 4 7 260
1923 WP MM 22:00:00 NR 25.70 122.20 80 53 __________O___ -1 25.70 122.20 4 9 259
1923 WP MM 1923-10-02 00:00:00 NR 25.64 121.87 53 33 __________P___ -1 25.64 121.87 4 10 258
1923 WP MM 03:00:00 NR 25.53 121.32 34 34 __________P___ -1 25.53 121.32 4 10 256
1923 WP MM 06:00:00 NR 25.40 120.74 53 51 __________P___ -1 25.40 120.74 4 11 255
1923 WP MM 09:00:00 NR 25.25 120.18 51 37 __________P___ -1 25.25 120.18 4 10 254
1923 WP MM 10:00:00 NR 25.20 120.00 37 24 __________O___ -1 25.20 120.00 4 10 252
1923 WP MM 12:00:00 NR 25.10 119.67 24 11 __________P___ -1 25.10 119.67 4 9 251
1923 WP MM 15:00:00 NR 24.95 119.22 22 10 __________P___ -1 24.95 119.22 4 8 249
1923 WP MM 18:00:00 NR 24.80 118.81 11 0 __________P___ -1 24.80 118.81 4 8 247
1923 WP MM 21:00:00 NR 24.65 118.43 0 0 __________P___ -1 24.65 118.43 4 8 247
1923 WP MM 22:00:00 NR 24.60 118.30 0 __________O___ -1 24.60 118.30 4 7 246